createdAt,value
2018-09-18T00:02:21.644Z,16.33
2018-09-18T00:04:51.067Z,16.33
2018-09-18T00:07:20.445Z,16.00
2018-09-18T00:09:53.047Z,16.33
2018-09-18T00:12:22.406Z,16.33
2018-09-18T00:14:51.825Z,18.33
2018-09-18T00:17:21.563Z,17.67
2018-09-18T00:19:50.890Z,17.67
2018-09-18T00:22:20.326Z,16.67
2018-09-18T00:24:49.767Z,18.33
2018-09-18T00:27:19.271Z,21.67
2018-09-18T00:29:48.620Z,16.00
2018-09-18T00:32:18.017Z,15.67
2018-09-18T00:34:47.412Z,17.33
2018-09-18T00:37:16.858Z,18.00
2018-09-18T00:39:46.201Z,18.00
2018-09-18T00:42:15.533Z,17.67
2018-09-18T00:44:44.911Z,17.00
2018-09-18T00:47:14.881Z,18.33
2018-09-18T00:49:44.302Z,17.00
2018-09-18T00:52:16.074Z,17.33
2018-09-18T00:54:46.080Z,15.67
2018-09-18T00:57:15.518Z,17.67
2018-09-18T00:59:44.886Z,16.00
2018-09-18T01:02:14.513Z,17.00
2018-09-18T01:04:43.825Z,17.00
2018-09-18T01:07:13.185Z,16.67
2018-09-18T01:09:46.234Z,18.00
2018-09-18T01:12:15.568Z,18.00
2018-09-18T01:14:45.800Z,14.67
2018-09-18T01:17:17.413Z,18.00
2018-09-18T01:19:46.754Z,16.67
2018-09-18T01:22:16.105Z,18.00
2018-09-18T01:24:46.003Z,17.67
2018-09-18T01:27:15.406Z,19.00
2018-09-18T01:29:44.799Z,18.33
2018-09-18T01:32:15.723Z,17.33
2018-09-18T01:34:45.563Z,16.33
2018-09-18T01:37:14.982Z,18.00
2018-09-18T01:39:47.617Z,18.00
2018-09-18T01:42:16.980Z,16.33
2018-09-18T01:44:46.435Z,17.00
2018-09-18T01:47:16.280Z,17.33
2018-09-18T01:49:46.497Z,18.67
2018-09-18T01:52:15.945Z,17.00
2018-09-18T01:54:46.526Z,17.00
2018-09-18T01:57:16.024Z,16.33
2018-09-18T01:59:45.751Z,18.00
2018-09-18T02:02:16.709Z,18.00
2018-09-18T02:04:46.146Z,17.33
2018-09-18T02:07:16.227Z,19.33
2018-09-18T02:09:45.629Z,17.67
2018-09-18T02:12:15.039Z,18.33
2018-09-18T02:14:46.271Z,17.00
2018-09-18T02:17:16.327Z,17.00
2018-09-18T02:19:45.710Z,16.33
2018-09-18T02:22:15.057Z,18.00
2018-09-18T02:24:44.443Z,18.00
2018-09-18T02:27:13.850Z,18.00
2018-09-18T02:29:43.573Z,17.00
2018-09-18T02:32:12.954Z,18.00
2018-09-18T02:34:42.354Z,18.00
2018-09-18T02:37:11.749Z,20.33
2018-09-18T02:39:41.743Z,19.67
2018-09-18T02:42:11.711Z,18.00
2018-09-18T02:44:41.398Z,20.67
2018-09-18T02:47:10.791Z,18.00
2018-09-18T02:49:40.224Z,15.33
2018-09-18T02:52:09.639Z,19.67
2018-09-18T02:54:39.026Z,18.33
2018-09-18T02:57:08.403Z,19.67
2018-09-18T02:59:37.823Z,19.00
2018-09-18T03:02:07.242Z,17.00
2018-09-18T03:04:36.674Z,18.00
2018-09-18T03:07:12.564Z,18.33
2018-09-18T03:09:43.764Z,20.00
2018-09-18T03:12:13.253Z,17.00
2018-09-18T03:14:42.632Z,18.67
2018-09-18T03:17:12.352Z,18.00
2018-09-18T03:19:41.737Z,15.67
2018-09-18T03:22:11.259Z,16.33
2018-09-18T03:24:40.962Z,16.33
2018-09-18T03:27:11.005Z,17.67
2018-09-18T03:29:40.363Z,20.00
2018-09-18T03:32:10.289Z,16.33
2018-09-18T03:34:39.703Z,17.00
2018-09-18T03:37:09.174Z,17.00
2018-09-18T03:39:38.940Z,16.33
2018-09-18T03:42:08.398Z,16.33
2018-09-18T03:44:37.815Z,16.67
2018-09-18T03:47:07.532Z,17.00
2018-09-18T03:49:36.915Z,14.67
2018-09-18T03:52:06.354Z,17.33
2018-09-18T03:54:35.662Z,19.33
2018-09-18T03:57:05.070Z,15.67
2018-09-18T03:59:35.005Z,16.33
2018-09-18T04:02:04.395Z,14.67
2018-09-18T04:04:33.779Z,17.67
2018-09-18T04:07:03.163Z,16.33
2018-09-18T04:09:32.597Z,15.33
2018-09-18T04:12:02.637Z,17.67
2018-09-18T04:14:32.164Z,15.67
2018-09-18T04:17:01.594Z,18.67
2018-09-18T04:21:55.274Z,17.75
2018-09-18T04:24:25.382Z,15.00
2018-09-18T04:26:54.935Z,18.00
2018-09-18T04:29:24.629Z,16.33
2018-09-18T04:31:54.136Z,14.67
2018-09-18T04:34:23.750Z,19.00
2018-09-18T04:36:53.624Z,18.33
2018-09-18T04:39:23.032Z,19.33
2018-09-18T04:41:52.389Z,17.00
2018-09-18T04:44:22.044Z,18.33
2018-09-18T04:46:51.954Z,20.33
2018-09-18T04:49:21.348Z,15.00
2018-09-18T04:54:22.253Z,19.86
2018-09-18T04:56:53.553Z,18.67
2018-09-18T04:59:23.376Z,17.00
2018-09-18T05:01:53.206Z,17.33
2018-09-18T05:04:23.008Z,16.67
2018-09-18T05:06:52.653Z,18.00
2018-09-18T05:09:22.163Z,18.33
2018-09-18T05:11:52.377Z,20.00
2018-09-18T05:14:22.154Z,20.00
2018-09-18T05:16:52.181Z,18.67
2018-09-18T05:19:22.341Z,17.67
2018-09-18T05:21:53.060Z,20.33
2018-09-18T05:24:22.528Z,17.00
2018-09-18T05:26:52.551Z,18.00
2018-09-18T05:29:23.585Z,23.00
2018-09-18T05:31:52.957Z,17.33
2018-09-18T05:34:23.322Z,17.67
2018-09-18T05:36:55.117Z,23.00
2018-09-18T05:39:24.485Z,19.33
2018-09-18T05:41:55.027Z,20.67
2018-09-18T05:44:25.065Z,21.67
2018-09-18T05:46:55.845Z,18.00
2018-09-18T05:49:27.250Z,19.00
2018-09-18T05:51:57.754Z,21.00
2018-09-18T05:54:27.237Z,19.33
2018-09-18T05:56:56.783Z,17.00
2018-09-18T05:59:26.439Z,17.00
2018-09-18T06:01:56.747Z,18.67
2018-09-18T06:04:26.182Z,17.67
2018-09-18T06:06:55.878Z,22.00
2018-09-18T06:09:25.265Z,23.00
2018-09-18T06:11:56.470Z,20.33
2018-09-18T06:14:25.949Z,23.00
2018-09-18T06:16:55.435Z,21.67
2018-09-18T06:19:25.299Z,23.67
2018-09-18T06:21:54.724Z,23.33
2018-09-18T06:24:24.602Z,17.67
2018-09-18T06:26:54.064Z,21.33
2018-09-18T06:29:23.520Z,21.33
2018-09-18T06:31:53.538Z,19.67
2018-09-18T06:34:23.255Z,22.33
2018-09-18T06:36:52.959Z,19.00
2018-09-18T06:39:26.213Z,22.00
2018-09-18T06:41:55.661Z,22.00
2018-09-18T06:44:26.997Z,22.67
2018-09-18T06:46:57.197Z,21.00
2018-09-18T06:49:30.848Z,20.00
2018-09-18T06:52:00.689Z,27.33
2018-09-18T06:54:30.176Z,24.00
2018-09-18T06:57:00.581Z,25.33
2018-09-18T06:59:30.056Z,23.67
2018-09-18T07:02:01.454Z,25.00
2018-09-18T07:04:31.353Z,25.00
2018-09-18T07:07:02.397Z,27.00
2018-09-18T07:09:34.905Z,26.00
2018-09-18T07:12:04.408Z,27.00
2018-09-18T07:14:34.496Z,24.00
2018-09-18T07:17:08.397Z,23.33
2018-09-18T07:19:38.034Z,23.33
2018-09-18T07:22:07.525Z,22.00
2018-09-18T07:24:39.459Z,22.67
2018-09-18T07:27:10.446Z,22.00
2018-09-18T07:29:40.780Z,22.33
2018-09-18T07:32:10.774Z,18.67
2018-09-18T07:34:40.192Z,22.00
2018-09-18T07:37:13.006Z,21.67
2018-09-18T07:39:43.731Z,23.00
2018-09-18T07:42:14.010Z,20.00
2018-09-18T07:44:45.836Z,17.00
2018-09-18T07:47:16.449Z,19.00
2018-09-18T07:49:46.497Z,20.00
2018-09-18T07:52:20.662Z,18.00
2018-09-18T07:54:51.674Z,21.67
2018-09-18T07:57:21.139Z,24.67
2018-09-18T07:59:52.104Z,24.67
2018-09-18T08:02:26.305Z,26.00
2018-09-18T08:04:56.465Z,24.00
2018-09-18T08:07:27.858Z,26.33
2018-09-18T08:09:59.650Z,24.67
2018-09-18T08:12:30.349Z,22.33
2018-09-18T08:15:04.430Z,25.33
2018-09-18T08:17:34.897Z,24.67
2018-09-18T08:20:04.958Z,23.00
2018-09-18T08:22:35.014Z,25.00
2018-09-18T08:25:04.542Z,23.33
2018-09-18T08:27:37.436Z,23.33
2018-09-18T08:30:16.252Z,24.00
2018-09-18T08:32:46.225Z,24.67
2018-09-18T08:35:16.120Z,24.00
2018-09-18T08:37:45.602Z,23.33
2018-09-18T08:40:16.102Z,26.67
2018-09-18T08:42:48.600Z,21.33
2018-09-18T08:45:26.770Z,23.00
2018-09-18T08:48:06.171Z,26.67
2018-09-18T08:50:37.078Z,23.67
2018-09-18T08:53:06.594Z,24.00
2018-09-18T08:55:36.563Z,24.67
2018-09-18T08:58:06.882Z,22.33
2018-09-18T09:00:36.405Z,25.67
2018-09-18T09:03:06.964Z,26.33
2018-09-18T09:05:36.629Z,22.00
2018-09-18T09:08:08.192Z,22.00
2018-09-18T09:10:38.208Z,24.00
2018-09-18T09:13:08.538Z,21.67
2018-09-18T09:15:40.878Z,22.00
2018-09-18T09:18:11.490Z,20.67
2018-09-18T09:26:42.906Z,23.67
2018-09-18T09:29:17.196Z,21.33
2018-09-18T09:31:49.519Z,23.00
2018-09-18T09:34:18.948Z,21.00
2018-09-18T09:36:51.118Z,20.33
2018-09-18T09:39:21.450Z,21.00
2018-09-18T09:47:57.613Z,21.33
2018-09-18T09:50:27.269Z,20.33
2018-09-18T09:52:59.487Z,23.33
2018-09-18T09:55:29.312Z,19.67
2018-09-18T09:57:59.526Z,22.67
2018-09-18T10:00:34.425Z,18.33
2018-09-18T10:03:05.286Z,21.33
2018-09-18T10:05:36.104Z,21.33
2018-09-18T10:08:05.664Z,17.00
2018-09-18T10:10:35.691Z,19.00
2018-09-18T10:13:06.020Z,20.00
2018-09-18T10:15:36.444Z,19.67
2018-09-18T10:18:10.779Z,20.00
2018-09-18T10:20:42.394Z,17.33
2018-09-18T10:23:12.830Z,18.67
2018-09-18T10:25:43.070Z,19.00
2018-09-18T10:28:13.771Z,18.00
2018-09-18T10:30:43.299Z,18.67
2018-09-18T10:33:12.743Z,18.00
2018-09-18T10:35:42.450Z,19.33
2018-09-18T10:38:12.201Z,19.00
2018-09-18T10:40:43.783Z,17.00
2018-09-18T10:43:15.243Z,20.00
2018-09-18T10:45:45.409Z,20.00
2018-09-18T10:48:15.180Z,17.00
2018-09-18T10:50:44.919Z,18.33
2018-09-18T10:53:15.257Z,19.00
2018-09-18T10:55:46.221Z,19.33
2018-09-18T10:58:17.094Z,20.33
2018-09-18T11:00:48.822Z,19.00
2018-09-18T11:03:18.497Z,20.00
2018-09-18T11:05:50.058Z,19.67
2018-09-18T11:08:20.257Z,18.67
2018-09-18T11:10:50.908Z,21.00
2018-09-18T11:13:20.400Z,20.67
2018-09-18T11:15:50.155Z,20.33
2018-09-18T11:18:20.166Z,20.00
2018-09-18T11:20:49.731Z,20.00
2018-09-18T11:23:19.631Z,20.00
2018-09-18T11:25:53.178Z,21.00
2018-09-18T11:28:22.765Z,20.33
2018-09-18T11:30:52.636Z,19.33
2018-09-18T11:33:22.398Z,19.67
2018-09-18T11:35:53.323Z,21.00
2018-09-18T11:38:22.750Z,20.33
2018-09-18T11:40:53.328Z,18.33
2018-09-18T11:43:22.811Z,19.00
2018-09-18T11:45:56.171Z,20.33
2018-09-18T11:48:25.841Z,19.00
2018-09-18T11:50:56.757Z,20.33
2018-09-18T11:53:28.106Z,17.33
2018-09-18T11:56:01.273Z,20.67
2018-09-18T11:58:32.134Z,20.00
2018-09-18T12:01:02.064Z,20.33
2018-09-18T12:03:32.931Z,20.00
2018-09-18T12:06:03.230Z,19.67
2018-09-18T12:08:33.522Z,21.67
2018-09-18T12:11:04.061Z,19.67
2018-09-18T12:13:33.539Z,22.00
2018-09-18T12:16:03.048Z,21.67
2018-09-18T12:18:38.371Z,19.00
2018-09-18T12:21:12.048Z,21.00
2018-09-18T12:23:42.185Z,21.00
2018-09-18T12:26:11.707Z,20.67
2018-09-18T12:28:41.915Z,17.67
2018-09-18T12:31:12.948Z,20.00
2018-09-18T12:33:43.366Z,20.67
2018-09-18T12:36:13.993Z,19.00
2018-09-18T12:38:43.496Z,17.67
2018-09-18T12:41:15.002Z,21.33
2018-09-18T12:43:47.500Z,17.67
2018-09-18T12:46:17.579Z,17.00
2018-09-18T12:48:47.706Z,17.00
2018-09-18T12:51:18.473Z,17.00
2018-09-18T12:53:49.095Z,17.67
2018-09-18T12:56:19.436Z,20.00
2018-09-18T12:58:50.517Z,17.00
2018-09-18T13:01:21.036Z,17.67
2018-09-18T13:03:50.982Z,18.00
2018-09-18T13:06:20.656Z,19.00
2018-09-18T13:08:51.296Z,15.00
2018-09-18T13:11:23.530Z,16.00
2018-09-18T13:13:54.108Z,18.67
2018-09-18T13:16:25.810Z,18.00
2018-09-18T13:18:56.149Z,17.00
2018-09-18T13:21:25.525Z,18.33
2018-09-18T13:23:56.381Z,16.00
2018-09-18T13:26:25.919Z,19.00
2018-09-18T13:28:55.386Z,16.00
2018-09-18T13:31:26.695Z,19.00
2018-09-18T13:33:56.312Z,18.33
2018-09-18T13:36:28.616Z,17.00
2018-09-18T13:39:01.526Z,18.67
2018-09-18T13:41:30.964Z,18.67
2018-09-18T13:44:00.462Z,17.67
2018-09-18T13:46:29.998Z,18.00
2018-09-18T13:49:01.480Z,16.00
2018-09-18T13:51:32.489Z,16.67
2018-09-18T13:54:16.563Z,15.33
2018-09-18T13:59:33.037Z,16.33
2018-09-18T14:02:04.338Z,16.00
2018-09-18T14:04:35.507Z,14.67
2018-09-18T14:07:05.138Z,16.67
2018-09-18T14:09:35.868Z,16.33
2018-09-18T14:12:05.420Z,16.00
2018-09-18T14:14:34.924Z,15.00
2018-09-18T14:17:04.802Z,15.33
2018-09-18T14:19:35.390Z,16.00
2018-09-18T14:22:06.540Z,15.00
2018-09-18T14:24:39.324Z,17.00
2018-09-18T14:27:08.854Z,18.33
2018-09-18T14:29:40.708Z,14.33
2018-09-18T14:32:10.794Z,17.00
2018-09-18T14:34:43.409Z,14.00
2018-09-18T14:37:16.451Z,14.67
2018-09-18T14:39:47.918Z,14.00
2018-09-18T14:42:21.298Z,13.33
2018-09-18T14:44:54.061Z,14.67
2018-09-18T14:47:25.539Z,12.33
2018-09-18T14:49:55.994Z,14.00
2018-09-18T14:52:28.720Z,15.33
2018-09-18T14:54:59.397Z,14.00
2018-09-18T14:57:30.408Z,14.00
2018-09-18T15:00:02.295Z,13.00
2018-09-18T15:02:33.135Z,13.67
2018-09-18T15:05:04.506Z,14.67
2018-09-18T15:07:33.867Z,13.33
2018-09-18T15:10:04.217Z,14.33
2018-09-18T15:12:36.981Z,13.00
2018-09-18T15:15:09.241Z,13.33
2018-09-18T15:17:40.631Z,14.00
2018-09-18T15:20:10.986Z,13.67
2018-09-18T15:22:44.749Z,14.00
2018-09-18T15:25:15.866Z,13.00
2018-09-18T15:27:45.381Z,15.67
2018-09-18T15:30:18.467Z,14.00
2018-09-18T15:32:49.878Z,13.67
2018-09-18T15:35:21.519Z,17.00
2018-09-18T15:37:54.848Z,16.00
2018-09-18T15:40:31.357Z,16.33
2018-09-18T15:43:08.856Z,13.33
2018-09-18T15:45:43.607Z,15.00
2018-09-18T15:48:19.000Z,16.00
2018-09-18T15:51:27.387Z,13.67
2018-09-18T15:54:01.521Z,15.00
2018-09-18T15:56:37.874Z,14.33
2018-09-18T15:59:13.319Z,14.00
2018-09-18T16:01:45.650Z,12.00
2018-09-18T16:04:25.611Z,13.67
2018-09-18T16:06:59.128Z,15.67
2018-09-18T16:09:35.674Z,14.00
2018-09-18T16:12:12.688Z,14.00
2018-09-18T16:14:47.038Z,15.00
2018-09-18T16:17:21.657Z,13.67
2018-09-18T16:19:53.609Z,14.00
2018-09-18T16:22:29.210Z,14.33
2018-09-18T16:25:09.913Z,15.33
2018-09-18T16:27:56.560Z,13.00
2018-09-18T16:30:44.366Z,15.33
2018-09-18T16:33:20.830Z,14.33
2018-09-18T16:35:57.117Z,16.33
2018-09-18T16:39:05.149Z,15.33
2018-09-18T16:41:37.560Z,14.00
2018-09-18T16:44:07.004Z,15.00
2018-09-18T16:46:37.382Z,14.00
2018-09-18T16:49:07.629Z,16.00
2018-09-18T16:51:40.804Z,15.67
2018-09-18T16:54:13.325Z,15.33
2018-09-18T16:56:42.916Z,16.00
2018-09-18T16:59:13.245Z,15.00
2018-09-18T17:01:45.874Z,14.33
2018-09-18T17:04:23.379Z,15.67
2018-09-18T17:06:53.256Z,15.67
2018-09-18T17:09:25.318Z,15.00
2018-09-18T17:11:57.087Z,17.00
2018-09-18T17:14:28.587Z,15.33
2018-09-18T17:17:02.679Z,16.00
2018-09-18T17:19:36.181Z,15.00
2018-09-18T17:22:06.463Z,15.33
2018-09-18T17:24:40.304Z,15.67
2018-09-18T17:27:12.023Z,16.00
2018-09-18T17:29:41.635Z,14.00
2018-09-18T17:32:12.896Z,15.00
2018-09-18T17:34:45.193Z,15.00
2018-09-18T17:37:17.871Z,14.67
2018-09-18T17:39:51.204Z,14.00
2018-09-18T17:42:23.907Z,15.33
2018-09-18T17:44:53.387Z,15.67
2018-09-18T17:47:27.778Z,16.33
2018-09-18T17:50:00.750Z,15.67
2018-09-18T17:52:35.736Z,15.67
2018-09-18T17:55:07.645Z,14.67
2018-09-18T17:57:39.294Z,15.33
2018-09-18T18:00:12.525Z,18.00
2018-09-18T18:02:41.943Z,15.33
2018-09-18T18:05:13.858Z,14.67
2018-09-18T18:07:44.687Z,13.00
2018-09-18T18:10:17.490Z,15.33
2018-09-18T18:12:48.148Z,14.67
2018-09-18T18:15:19.564Z,14.00
2018-09-18T18:17:49.014Z,15.00
2018-09-18T18:20:18.457Z,16.00
2018-09-18T18:22:50.226Z,16.00
2018-09-18T18:25:19.831Z,15.00
2018-09-18T18:27:50.332Z,16.33
2018-09-18T18:32:56.662Z,15.33
2018-09-18T18:35:26.467Z,16.00
2018-09-18T18:37:57.181Z,15.00
2018-09-18T18:40:27.536Z,15.00
2018-09-18T18:42:57.729Z,15.00
2018-09-18T18:45:28.550Z,17.67
2018-09-18T18:47:59.293Z,15.00
2018-09-18T18:50:29.783Z,15.00
2018-09-18T18:53:01.232Z,14.67
2018-09-18T18:55:33.559Z,16.00
2018-09-18T18:58:04.552Z,16.67
2018-09-18T19:00:35.659Z,15.33
2018-09-18T19:03:05.366Z,15.33
2018-09-18T19:05:34.808Z,17.67
2018-09-18T19:08:05.493Z,14.00
2018-09-18T19:10:34.865Z,17.00
2018-09-18T19:13:04.791Z,14.33
2018-09-18T19:15:35.998Z,16.00
2018-09-18T19:18:11.571Z,18.00
2018-09-18T19:20:42.530Z,16.00
2018-09-18T19:23:14.510Z,16.67
2018-09-18T19:25:46.071Z,16.00
2018-09-18T19:28:18.474Z,16.00
2018-09-18T19:30:49.654Z,15.33
2018-09-18T19:33:21.072Z,16.33
2018-09-18T19:35:53.687Z,15.33
2018-09-18T19:38:28.542Z,14.33
2018-09-18T19:41:02.011Z,16.67
2018-09-18T19:43:31.994Z,16.00
2018-09-18T19:46:02.537Z,15.67
2018-09-18T19:48:33.177Z,15.00
2018-09-18T19:51:04.355Z,16.33
2018-09-18T19:53:34.636Z,15.67
2018-09-18T19:56:07.284Z,15.00
2018-09-18T19:58:39.831Z,15.67
2018-09-18T20:01:10.594Z,13.00
2018-09-18T20:03:41.542Z,15.00
2018-09-18T20:06:14.991Z,16.00
2018-09-18T20:08:45.092Z,14.67
2018-09-18T20:11:16.257Z,14.33
2018-09-18T20:13:47.103Z,14.33
2018-09-18T20:16:18.452Z,16.33
2018-09-18T20:18:53.307Z,15.00
2018-09-18T20:21:25.988Z,16.33
2018-09-18T20:23:56.798Z,15.00
2018-09-18T20:26:27.696Z,17.67
2018-09-18T20:28:59.424Z,16.00
2018-09-18T20:31:31.698Z,16.00
2018-09-18T20:34:08.963Z,12.67
2018-09-18T20:36:39.400Z,15.00
2018-09-18T20:39:11.977Z,16.00
2018-09-18T20:41:41.686Z,17.00
2018-09-18T20:44:12.381Z,16.33
2018-09-18T20:46:41.808Z,13.33
2018-09-18T20:49:11.536Z,13.67
2018-09-18T20:51:42.190Z,14.00
2018-09-18T20:54:11.629Z,14.00
2018-09-18T20:56:41.116Z,14.00
2018-09-18T20:59:13.579Z,17.67
2018-09-18T21:01:43.143Z,15.33
2018-09-18T21:04:13.455Z,15.33
2018-09-18T21:06:44.302Z,14.33
2018-09-18T21:09:16.609Z,16.33
2018-09-18T21:11:46.037Z,19.00
2018-09-18T21:14:15.556Z,19.00
2018-09-18T21:16:45.692Z,17.67
2018-09-18T21:19:19.709Z,17.00
2018-09-18T21:21:52.497Z,18.00
2018-09-18T21:24:25.429Z,19.00
2018-09-18T21:26:54.833Z,17.33
2018-09-18T21:29:28.105Z,17.00
2018-09-18T21:31:58.730Z,18.00
2018-09-18T21:34:29.904Z,16.33
2018-09-18T21:37:02.262Z,17.33
2018-09-18T21:39:37.630Z,16.00
2018-09-18T21:42:09.074Z,16.00
2018-09-18T21:44:40.593Z,16.00
2018-09-18T21:47:10.146Z,15.33
2018-09-18T21:49:41.048Z,19.33
2018-09-18T21:52:11.134Z,16.00
2018-09-18T21:54:40.655Z,17.67
2018-09-18T21:57:10.765Z,17.00
2018-09-18T21:59:40.502Z,17.33
2018-09-18T22:02:09.951Z,16.33
2018-09-18T22:04:39.409Z,19.33
2018-09-18T22:07:09.388Z,15.33
2018-09-18T22:09:39.132Z,17.00
2018-09-18T22:12:09.630Z,14.00
2018-09-18T22:14:40.823Z,17.00
2018-09-18T22:17:10.318Z,15.33
2018-09-18T22:19:42.023Z,19.33
2018-09-18T22:22:13.343Z,18.33
2018-09-18T22:24:44.718Z,19.00
2018-09-18T22:27:14.397Z,19.67
2018-09-18T22:29:43.923Z,22.00
2018-09-18T22:32:13.577Z,20.33
2018-09-18T22:34:43.023Z,19.33
2018-09-18T22:37:13.152Z,20.33
2018-09-18T22:39:42.623Z,21.67
2018-09-18T22:42:12.092Z,20.00
2018-09-18T22:44:42.093Z,23.67
2018-09-18T22:47:11.621Z,22.00
2018-09-18T22:49:42.164Z,21.00
2018-09-18T22:52:11.797Z,21.00
2018-09-18T22:54:41.221Z,20.00
2018-09-18T22:57:11.822Z,23.33
2018-09-18T22:59:42.057Z,21.33
2018-09-18T23:02:12.126Z,22.67
2018-09-18T23:04:42.923Z,22.67
2018-09-18T23:07:12.322Z,22.33
2018-09-18T23:09:42.480Z,22.00
2018-09-18T23:12:13.052Z,23.00
2018-09-18T23:14:43.691Z,23.00
2018-09-18T23:17:13.691Z,22.33
2018-09-18T23:19:44.598Z,22.00
2018-09-18T23:22:14.125Z,24.33
2018-09-18T23:24:43.569Z,23.33
2018-09-18T23:27:12.960Z,24.00
2018-09-18T23:29:43.970Z,23.67
2018-09-18T23:32:13.426Z,22.33
2018-09-18T23:34:42.807Z,21.00
2018-09-18T23:37:12.597Z,21.00
2018-09-18T23:39:44.016Z,20.67
2018-09-18T23:42:13.524Z,21.00
2018-09-18T23:44:44.777Z,21.67
2018-09-18T23:47:15.064Z,21.67
2018-09-18T23:49:44.955Z,25.33
2018-09-18T23:52:14.429Z,25.00
2018-09-18T23:54:45.045Z,22.00
2018-09-18T23:57:16.809Z,25.33
2018-09-18T23:59:46.232Z,21.67
